Last 24 Hours

BDVWA

Hourly Data | America/Los_Angeles
as of 9/4/26 5:32 PM PDT
Date & Time Temp (°F) RH (%) Dew Pt (°F) Wind Dir (°) Wind Spd (mph) Wind Gust (mph) Wind Gst Dir (°) Pressure (mb) Barometric Press (inHg) Soil Temp (°F) Solar Rad (W/m2) Latest Rain (In) Daily Rain (In) Daily Min Temp (°F) Daily Max Temp (°F) Daily Max Wind (mph) Daily ETo (in)
9/4/26 - 1700 84.3 17 34.7 S | 184 13.5 26.5 SSW | 197 1,004.7 29.64 88.7 535 0.00 0.00 60.7 85.7 26.5 0.243
9/4/26 - 1600 84.6 16 33.6 S | 173 12.3 22.6 S | 180 1,005.2 29.65 88.7 723 0.00 0.00 60.7 85.7 25.2 0.219
9/4/26 - 1500 83.9 18 35.9 S | 177 12.1 25.0 S | 177 1,005.8 29.67 88.8 861 0.00 0.00 60.7 84.8 25.2 0.190
9/4/26 - 1400 82.7 20 37.0 S | 185 12.5 25.0 SSW | 192 1,006.4 29.69 88.9 936 0.00 0.00 60.7 83.9 25.2 0.159
9/4/26 - 1300 81.3 20 36.7 S | 186 12.5 24.8 SSE | 164 1,007.2 29.71 89.1 951 0.00 0.00 60.7 82.9 25.2 0.126
9/4/26 - 1200 80.2 20 35.6 S | 174 9.2 25.2 SSE | 165 1,007.8 29.73 89.2 905 0.00 0.00 60.7 82.2 25.2 0.093
9/4/26 - 1100 76.8 25 38.5 SE | 129 6.2 20.8 SSE | 147 1,008.9 29.76 89.4 796 0.00 0.00 60.7 78.8 20.8 0.064
9/4/26 - 1000 73.6 31 40.7 E | 92 4.2 9.9 ESE | 120 1,009.5 29.78 89.6 630 0.00 0.00 60.7 74.9 9.9 0.040
9/4/26 - 0900 72.1 32 40.8 ESE | 102 2.1 9.0 SE | 128 1,009.5 29.78 89.8 426 0.00 0.00 60.7 73.3 9.0 0.022
9/4/26 - 0800 67.6 35 39.1 WNW | 295 1.9 4.4 W | 270 1,010.1 29.80 89.9 202 0.00 0.00 60.7 71.5 8.3 0.011
9/4/26 - 0700 61.6 41 37.6 W | 260 5.1 8.3 W | 266 1,010.9 29.82 90.1 33 0.00 0.00 60.7 66.1 8.3 0.008
9/4/26 - 0600 61.4 40 37.1 WSW | 256 5.2 7.9 W | 259 1,010.4 29.81 90.2 0 0.00 0.00 60.7 66.1 8.3 0.006
9/4/26 - 0500 61.3 40 36.8 W | 262 5.1 8.3 W | 261 1,010.3 29.80 90.2 0 0.00 0.00 60.7 66.1 8.3 0.005
9/4/26 - 0400 62.1 40 37.7 W | 265 5.1 7.7 W | 268 1,009.8 29.79 90.2 0 0.00 0.00 60.7 66.1 7.7 0.003
9/4/26 - 0300 62.2 39 37.2 W | 263 4.0 7.2 W | 260 1,009.8 29.79 90.2 0 0.00 0.00 60.7 66.1 7.2 0.002
9/4/26 - 0200 64.1 38 38.2 WSW | 258 3.9 6.1 W | 275 1,009.4 29.78 90.2 0 0.00 0.00 62.7 66.1 6.1 0.001
9/4/26 - 0100 65.5 36 38.0 W | 269 4.2 7.5 W | 276 1,009.0 29.77 90.1 0 0.00 0.00 58.4 86.7 21.5 0.260
9/4/26 - 0000 67.5 35 39.2 W | 275 4.0 6.6 WNW | 283 1,008.4 29.75 90.0 0 0.00 0.00 58.4 86.7 21.5 0.258
9/3/26 - 2300 69.0 34 39.4 WSW | 244 3.1 7.0 W | 270 1,008.2 29.74 89.9 0 0.00 0.00 58.4 86.7 21.5 0.257
9/3/26 - 2200 71.4 33 40.5 W | 265 2.9 7.2 WSW | 244 1,007.8 29.73 89.7 0 0.00 0.00 58.4 86.7 21.5 0.256
9/3/26 - 2100 74.2 32 42.3 W | 264 4.3 11.0 SW | 218 1,006.8 29.70 89.6 0 0.00 0.00 58.4 86.7 21.5 0.256
9/3/26 - 2000 76.2 30 42.8 SW | 226 7.2 12.3 SSW | 208 1,006.0 29.68 89.4 1 0.00 0.00 58.4 86.7 21.5 0.254
9/3/26 - 1900 80.3 25 41.6 SSW | 200 8.2 15.6 SSW | 193 1,004.9 29.64 89.3 102 0.00 0.00 58.4 86.7 21.5 0.251
9/3/26 - 1800 83.1 22 39.8 S | 187 9.2 17.3 S | 190 1,004.1 29.62 89.2 314 0.00 0.00 58.4 86.7 21.5 0.243
9/3/26 - 1700 84.2 19 37.4 SSE | 164 9.9 21.5 SE | 130 1,004.1 29.62 89.2 533 0.00 0.00 58.4 86.7 21.5 0.229
Max 84.6 41 42.8 - 13.5 26.5 - 1,010.9 29.82 90.2 951 0.00 0.00 62.7 86.7 26.5 0.260
Avg 73.2 30 38.3 - 6.7 13.8 - 1,007.8 29.73 89.6 318 0.00 - - - - -
Min 61.3 16 33.6 - 1.9 4.4 - 1,004.1 29.62 88.7 0 0.00 0.00 58.4 66.1 6.1 0.001
Total - - - - - - - - - - - 0.00 - - - - -